Aviation Digital Data Service (ADDS)

Output produced by METARs form (1649 UTC 27 February 2015)
found at http://www.aviationweather.gov/adds/metars/
 
KDEN 271500Z 2715/2818 16011KT P6SM FEW030 SCT110 
     FM271800 13014KT P6SM FEW030 SCT060 
     FM280200 18010KT P6SM FEW040 SCT080 BKN120 
     FM280800 24007KT P6SM FEW035 SCT070 BKN100